sensor_id;sensor_type;location;lat;lon;timestamp;temperature;humidity
6986;DHT22;3533;51.246;6.850;2023-03-05T00:01:28;18.40;35.90
6986;DHT22;3533;51.246;6.850;2023-03-05T00:03:55;18.40;35.90
6986;DHT22;3533;51.246;6.850;2023-03-05T00:06:24;18.40;35.90
6986;DHT22;3533;51.246;6.850;2023-03-05T00:08:50;18.40;35.90
6986;DHT22;3533;51.246;6.850;2023-03-05T00:11:18;18.40;35.90
6986;DHT22;3533;51.246;6.850;2023-03-05T00:13:44;18.40;35.90
6986;DHT22;3533;51.246;6.850;2023-03-05T00:16:12;18.40;35.90
6986;DHT22;3533;51.246;6.850;2023-03-05T00:18:39;18.40;35.90
6986;DHT22;3533;51.246;6.850;2023-03-05T00:21:23;18.40;35.90
6986;DHT22;3533;51.246;6.850;2023-03-05T00:23:50;18.40;35.90
6986;DHT22;3533;51.246;6.850;2023-03-05T00:26:17;18.40;35.90
6986;DHT22;3533;51.246;6.850;2023-03-05T00:28:43;18.40;35.90
6986;DHT22;3533;51.246;6.850;2023-03-05T00:31:09;18.40;36.00
6986;DHT22;3533;51.246;6.850;2023-03-05T00:33:34;18.40;35.90
6986;DHT22;3533;51.246;6.850;2023-03-05T00:36:05;18.40;35.90
6986;DHT22;3533;51.246;6.850;2023-03-05T00:38:30;18.40;35.90
6986;DHT22;3533;51.246;6.850;2023-03-05T00:40:57;18.40;35.90
6986;DHT22;3533;51.246;6.850;2023-03-05T00:43:22;18.40;35.90
6986;DHT22;3533;51.246;6.850;2023-03-05T00:45:48;18.40;36.00
6986;DHT22;3533;51.246;6.850;2023-03-05T00:48:13;18.40;36.00
6986;DHT22;3533;51.246;6.850;2023-03-05T00:50:39;18.40;36.00
6986;DHT22;3533;51.246;6.850;2023-03-05T00:53:04;18.40;35.90
6986;DHT22;3533;51.246;6.850;2023-03-05T00:55:30;18.40;36.00
6986;DHT22;3533;51.246;6.850;2023-03-05T00:57:55;18.40;36.00
6986;DHT22;3533;51.246;6.850;2023-03-05T01:00:21;18.40;36.00
6986;DHT22;3533;51.246;6.850;2023-03-05T01:02:47;18.40;36.00
6986;DHT22;3533;51.246;6.850;2023-03-05T01:05:13;18.40;36.00
6986;DHT22;3533;51.246;6.850;2023-03-05T01:07:40;18.40;36.00
6986;DHT22;3533;51.246;6.850;2023-03-05T01:10:06;18.40;36.00
6986;DHT22;3533;51.246;6.850;2023-03-05T01:12:32;18.40;36.00
6986;DHT22;3533;51.246;6.850;2023-03-05T01:14:57;18.40;36.10
6986;DHT22;3533;51.246;6.850;2023-03-05T01:17:23;18.40;36.00
6986;DHT22;3533;51.246;6.850;2023-03-05T01:19:48;18.40;36.00
6986;DHT22;3533;51.246;6.850;2023-03-05T01:22:14;18.40;36.00
6986;DHT22;3533;51.246;6.850;2023-03-05T01:24:39;18.40;36.00
6986;DHT22;3533;51.246;6.850;2023-03-05T01:27:05;18.40;36.10
6986;DHT22;3533;51.246;6.850;2023-03-05T01:29:30;18.40;36.10
6986;DHT22;3533;51.246;6.850;2023-03-05T01:31:56;18.40;36.10
6986;DHT22;3533;51.246;6.850;2023-03-05T01:34:21;18.40;36.00
6986;DHT22;3533;51.246;6.850;2023-03-05T01:36:47;18.30;36.00
6986;DHT22;3533;51.246;6.850;2023-03-05T01:39:15;18.40;36.10
6986;DHT22;3533;51.246;6.850;2023-03-05T01:41:41;18.40;36.00
6986;DHT22;3533;51.246;6.850;2023-03-05T01:44:13;18.40;36.00
6986;DHT22;3533;51.246;6.850;2023-03-05T01:46:40;18.40;36.00
6986;DHT22;3533;51.246;6.850;2023-03-05T01:51:59;18.40;36.00
6986;DHT22;3533;51.246;6.850;2023-03-05T01:54:30;18.30;36.00
6986;DHT22;3533;51.246;6.850;2023-03-05T01:57:03;18.30;35.90
6986;DHT22;3533;51.246;6.850;2023-03-05T01:59:31;18.30;35.90
6986;DHT22;3533;51.246;6.850;2023-03-05T02:01:58;18.30;35.90
6986;DHT22;3533;51.246;6.850;2023-03-05T02:04:29;18.30;35.90
6986;DHT22;3533;51.246;6.850;2023-03-05T02:06:56;18.30;35.90
6986;DHT22;3533;51.246;6.850;2023-03-05T02:09:21;18.30;35.90
6986;DHT22;3533;51.246;6.850;2023-03-05T02:11:48;18.30;36.00
6986;DHT22;3533;51.246;6.850;2023-03-05T02:14:14;18.30;36.00
6986;DHT22;3533;51.246;6.850;2023-03-05T02:16:40;18.30;35.90
6986;DHT22;3533;51.246;6.850;2023-03-05T02:19:09;18.30;35.90
6986;DHT22;3533;51.246;6.850;2023-03-05T02:21:38;18.30;36.00
6986;DHT22;3533;51.246;6.850;2023-03-05T02:24:04;18.30;36.70
6986;DHT22;3533;51.246;6.850;2023-03-05T02:26:30;18.30;35.90
6986;DHT22;3533;51.246;6.850;2023-03-05T02:28:57;18.30;36.00
6986;DHT22;3533;51.246;6.850;2023-03-05T02:31:24;18.30;36.00
6986;DHT22;3533;51.246;6.850;2023-03-05T02:33:52;18.30;36.00
6986;DHT22;3533;51.246;6.850;2023-03-05T02:36:18;18.30;36.00
6986;DHT22;3533;51.246;6.850;2023-03-05T02:38:44;18.30;36.00
6986;DHT22;3533;51.246;6.850;2023-03-05T02:41:11;18.30;36.00
6986;DHT22;3533;51.246;6.850;2023-03-05T02:43:36;18.30;36.00
6986;DHT22;3533;51.246;6.850;2023-03-05T02:46:03;18.30;36.00
6986;DHT22;3533;51.246;6.850;2023-03-05T02:48:28;18.30;36.00
6986;DHT22;3533;51.246;6.850;2023-03-05T02:50:55;18.30;36.00
6986;DHT22;3533;51.246;6.850;2023-03-05T02:53:20;18.30;36.00
6986;DHT22;3533;51.246;6.850;2023-03-05T02:55:48;18.30;36.00
6986;DHT22;3533;51.246;6.850;2023-03-05T02:58:15;18.30;36.00
6986;DHT22;3533;51.246;6.850;2023-03-05T03:00:41;18.30;36.00
6986;DHT22;3533;51.246;6.850;2023-03-05T03:03:07;18.30;36.10
6986;DHT22;3533;51.246;6.850;2023-03-05T03:05:32;18.30;36.10
6986;DHT22;3533;51.246;6.850;2023-03-05T03:07:58;18.30;36.10
6986;DHT22;3533;51.246;6.850;2023-03-05T03:10:23;18.30;36.20
6986;DHT22;3533;51.246;6.850;2023-03-05T03:12:49;18.30;36.00
6986;DHT22;3533;51.246;6.850;2023-03-05T03:15:15;18.30;36.00
6986;DHT22;3533;51.246;6.850;2023-03-05T03:17:41;18.30;36.10
6986;DHT22;3533;51.246;6.850;2023-03-05T03:20:09;18.30;36.00
6986;DHT22;3533;51.246;6.850;2023-03-05T03:22:35;18.30;36.10
6986;DHT22;3533;51.246;6.850;2023-03-05T03:25:02;18.30;36.10
6986;DHT22;3533;51.246;6.850;2023-03-05T03:27:28;18.30;36.10
6986;DHT22;3533;51.246;6.850;2023-03-05T03:29:53;18.30;36.00
6986;DHT22;3533;51.246;6.850;2023-03-05T03:32:19;18.30;36.00
6986;DHT22;3533;51.246;6.850;2023-03-05T03:34:44;18.30;36.60
6986;DHT22;3533;51.246;6.850;2023-03-05T03:37:13;18.30;36.00
6986;DHT22;3533;51.246;6.850;2023-03-05T03:39:38;18.30;36.00
6986;DHT22;3533;51.246;6.850;2023-03-05T03:42:04;18.30;36.10
6986;DHT22;3533;51.246;6.850;2023-03-05T03:44:30;18.30;36.10
6986;DHT22;3533;51.246;6.850;2023-03-05T03:46:56;18.30;36.10
6986;DHT22;3533;51.246;6.850;2023-03-05T03:49:23;18.30;36.10
6986;DHT22;3533;51.246;6.850;2023-03-05T03:51:50;18.30;36.10
6986;DHT22;3533;51.246;6.850;2023-03-05T03:54:17;18.30;36.10
6986;DHT22;3533;51.246;6.850;2023-03-05T03:56:43;18.30;36.10
6986;DHT22;3533;51.246;6.850;2023-03-05T03:59:09;18.30;36.10
6986;DHT22;3533;51.246;6.850;2023-03-05T04:01:35;18.30;36.10
6986;DHT22;3533;51.246;6.850;2023-03-05T04:04:01;18.30;36.10
6986;DHT22;3533;51.246;6.850;2023-03-05T04:06:26;18.30;36.10
6986;DHT22;3533;51.246;6.850;2023-03-05T04:08:52;18.30;36.10
6986;DHT22;3533;51.246;6.850;2023-03-05T04:11:18;18.30;36.90
6986;DHT22;3533;51.246;6.850;2023-03-05T04:13:45;18.30;36.10
6986;DHT22;3533;51.246;6.850;2023-03-05T04:16:11;18.30;36.10
6986;DHT22;3533;51.246;6.850;2023-03-05T04:18:36;18.30;36.10
6986;DHT22;3533;51.246;6.850;2023-03-05T04:21:02;18.30;36.10
6986;DHT22;3533;51.246;6.850;2023-03-05T04:23:28;18.30;36.10
6986;DHT22;3533;51.246;6.850;2023-03-05T04:25:53;18.30;36.10
6986;DHT22;3533;51.246;6.850;2023-03-05T04:28:19;18.30;36.10
6986;DHT22;3533;51.246;6.850;2023-03-05T04:30:44;18.30;36.10
6986;DHT22;3533;51.246;6.850;2023-03-05T04:33:10;18.30;36.10
6986;DHT22;3533;51.246;6.850;2023-03-05T04:35:36;18.30;36.10
6986;DHT22;3533;51.246;6.850;2023-03-05T04:38:02;18.30;36.10
6986;DHT22;3533;51.246;6.850;2023-03-05T04:40:27;18.30;36.10
6986;DHT22;3533;51.246;6.850;2023-03-05T04:42:53;18.30;36.10
6986;DHT22;3533;51.246;6.850;2023-03-05T04:45:18;18.30;36.10
6986;DHT22;3533;51.246;6.850;2023-03-05T04:47:44;18.30;36.10
6986;DHT22;3533;51.246;6.850;2023-03-05T04:50:10;18.30;36.10
6986;DHT22;3533;51.246;6.850;2023-03-05T04:52:40;18.30;36.10
6986;DHT22;3533;51.246;6.850;2023-03-05T04:55:06;18.30;36.10
6986;DHT22;3533;51.246;6.850;2023-03-05T04:57:32;18.30;36.10
6986;DHT22;3533;51.246;6.850;2023-03-05T04:59:58;18.30;36.10
6986;DHT22;3533;51.246;6.850;2023-03-05T05:02:24;18.30;36.00
6986;DHT22;3533;51.246;6.850;2023-03-05T05:04:52;18.30;36.00
6986;DHT22;3533;51.246;6.850;2023-03-05T05:07:17;18.30;36.00
6986;DHT22;3533;51.246;6.850;2023-03-05T05:09:43;18.30;36.00
6986;DHT22;3533;51.246;6.850;2023-03-05T05:12:08;18.30;36.00
6986;DHT22;3533;51.246;6.850;2023-03-05T05:14:35;18.30;36.00
6986;DHT22;3533;51.246;6.850;2023-03-05T05:17:00;18.30;36.00
6986;DHT22;3533;51.246;6.850;2023-03-05T05:19:32;18.30;36.10
6986;DHT22;3533;51.246;6.850;2023-03-05T05:21:58;18.30;36.00
6986;DHT22;3533;51.246;6.850;2023-03-05T05:24:24;18.30;36.00
6986;DHT22;3533;51.246;6.850;2023-03-05T05:26:50;18.30;36.00
6986;DHT22;3533;51.246;6.850;2023-03-05T05:29:15;18.30;36.10
6986;DHT22;3533;51.246;6.850;2023-03-05T05:31:41;18.30;36.10
6986;DHT22;3533;51.246;6.850;2023-03-05T05:34:06;18.30;36.10
6986;DHT22;3533;51.246;6.850;2023-03-05T05:36:32;18.30;36.10
6986;DHT22;3533;51.246;6.850;2023-03-05T05:38:58;18.30;36.10
6986;DHT22;3533;51.246;6.850;2023-03-05T05:41:23;18.30;36.10
6986;DHT22;3533;51.246;6.850;2023-03-05T05:43:49;18.30;36.10
6986;DHT22;3533;51.246;6.850;2023-03-05T05:46:17;18.30;36.10
6986;DHT22;3533;51.246;6.850;2023-03-05T05:48:43;18.30;36.10
6986;DHT22;3533;51.246;6.850;2023-03-05T05:51:12;18.30;36.10
6986;DHT22;3533;51.246;6.850;2023-03-05T05:53:39;18.30;36.10
6986;DHT22;3533;51.246;6.850;2023-03-05T05:56:07;18.30;36.10
6986;DHT22;3533;51.246;6.850;2023-03-05T05:58:34;18.30;36.10
6986;DHT22;3533;51.246;6.850;2023-03-05T06:01:00;18.30;36.20
6986;DHT22;3533;51.246;6.850;2023-03-05T06:03:25;18.30;36.10
6986;DHT22;3533;51.246;6.850;2023-03-05T06:05:51;18.30;36.10
6986;DHT22;3533;51.246;6.850;2023-03-05T06:08:17;18.30;36.20
6986;DHT22;3533;51.246;6.850;2023-03-05T06:10:43;18.30;36.10
6986;DHT22;3533;51.246;6.850;2023-03-05T06:13:09;18.30;36.10
6986;DHT22;3533;51.246;6.850;2023-03-05T06:15:34;18.30;36.10
6986;DHT22;3533;51.246;6.850;2023-03-05T06:18:00;18.30;36.10
6986;DHT22;3533;51.246;6.850;2023-03-05T06:20:26;18.30;36.10
6986;DHT22;3533;51.246;6.850;2023-03-05T06:22:53;18.30;36.10
6986;DHT22;3533;51.246;6.850;2023-03-05T06:25:18;18.30;36.20
6986;DHT22;3533;51.246;6.850;2023-03-05T06:27:44;18.30;36.10
6986;DHT22;3533;51.246;6.850;2023-03-05T06:30:10;18.30;36.10
6986;DHT22;3533;51.246;6.850;2023-03-05T06:32:36;18.30;36.10
6986;DHT22;3533;51.246;6.850;2023-03-05T06:35:03;18.30;36.10
6986;DHT22;3533;51.246;6.850;2023-03-05T06:37:28;18.30;36.20
6986;DHT22;3533;51.246;6.850;2023-03-05T06:39:54;18.30;36.20
6986;DHT22;3533;51.246;6.850;2023-03-05T06:42:19;18.30;36.10
6986;DHT22;3533;51.246;6.850;2023-03-05T06:44:45;18.30;36.20
6986;DHT22;3533;51.246;6.850;2023-03-05T06:47:11;18.30;36.10
6986;DHT22;3533;51.246;6.850;2023-03-05T06:49:37;18.30;36.10
6986;DHT22;3533;51.246;6.850;2023-03-05T06:52:04;18.30;36.10
6986;DHT22;3533;51.246;6.850;2023-03-05T06:54:30;18.30;36.10
6986;DHT22;3533;51.246;6.850;2023-03-05T06:56:56;18.30;36.10
6986;DHT22;3533;51.246;6.850;2023-03-05T06:59:21;18.30;36.10
6986;DHT22;3533;51.246;6.850;2023-03-05T07:01:47;18.30;36.10
6986;DHT22;3533;51.246;6.850;2023-03-05T07:04:13;18.30;36.10
6986;DHT22;3533;51.246;6.850;2023-03-05T07:06:40;18.30;36.10
6986;DHT22;3533;51.246;6.850;2023-03-05T07:09:08;18.30;36.10
6986;DHT22;3533;51.246;6.850;2023-03-05T07:11:35;18.30;36.10
6986;DHT22;3533;51.246;6.850;2023-03-05T07:14:01;18.30;36.00
6986;DHT22;3533;51.246;6.850;2023-03-05T07:16:29;18.30;36.00
6986;DHT22;3533;51.246;6.850;2023-03-05T07:18:56;18.30;36.00
6986;DHT22;3533;51.246;6.850;2023-03-05T07:21:26;18.30;36.00
6986;DHT22;3533;51.246;6.850;2023-03-05T07:23:53;18.30;36.10
6986;DHT22;3533;51.246;6.850;2023-03-05T07:26:19;18.30;36.00
6986;DHT22;3533;51.246;6.850;2023-03-05T07:28:45;18.30;36.00
6986;DHT22;3533;51.246;6.850;2023-03-05T07:31:16;18.30;36.00
6986;DHT22;3533;51.246;6.850;2023-03-05T07:33:44;18.30;36.00
6986;DHT22;3533;51.246;6.850;2023-03-05T07:36:10;18.30;36.10
6986;DHT22;3533;51.246;6.850;2023-03-05T07:38:36;18.30;36.00
6986;DHT22;3533;51.246;6.850;2023-03-05T07:41:04;18.30;36.00
6986;DHT22;3533;51.246;6.850;2023-03-05T07:43:29;18.30;36.10
6986;DHT22;3533;51.246;6.850;2023-03-05T07:45:55;18.30;36.10
6986;DHT22;3533;51.246;6.850;2023-03-05T07:48:20;18.30;36.10
6986;DHT22;3533;51.246;6.850;2023-03-05T07:50:47;18.30;36.10
6986;DHT22;3533;51.246;6.850;2023-03-05T07:53:13;18.30;36.00
6986;DHT22;3533;51.246;6.850;2023-03-05T07:55:43;18.30;36.00
6986;DHT22;3533;51.246;6.850;2023-03-05T07:58:09;18.30;36.00
6986;DHT22;3533;51.246;6.850;2023-03-05T08:00:34;18.30;36.10
6986;DHT22;3533;51.246;6.850;2023-03-05T08:03:00;18.30;36.10
6986;DHT22;3533;51.246;6.850;2023-03-05T08:05:26;18.30;36.00
6986;DHT22;3533;51.246;6.850;2023-03-05T08:07:51;18.30;36.10
6986;DHT22;3533;51.246;6.850;2023-03-05T08:10:17;18.30;36.10
6986;DHT22;3533;51.246;6.850;2023-03-05T08:12:42;18.30;36.10
6986;DHT22;3533;51.246;6.850;2023-03-05T08:15:08;18.30;36.10
6986;DHT22;3533;51.246;6.850;2023-03-05T08:17:34;18.30;36.10
6986;DHT22;3533;51.246;6.850;2023-03-05T08:19:59;18.30;36.10
6986;DHT22;3533;51.246;6.850;2023-03-05T08:22:32;18.30;36.10
6986;DHT22;3533;51.246;6.850;2023-03-05T08:24:58;18.30;36.10
6986;DHT22;3533;51.246;6.850;2023-03-05T08:27:23;18.30;36.10
6986;DHT22;3533;51.246;6.850;2023-03-05T08:29:49;18.30;36.00
6986;DHT22;3533;51.246;6.850;2023-03-05T08:32:14;18.30;36.10
6986;DHT22;3533;51.246;6.850;2023-03-05T08:34:40;18.30;36.10
6986;DHT22;3533;51.246;6.850;2023-03-05T08:37:05;18.30;36.10
6986;DHT22;3533;51.246;6.850;2023-03-05T08:39:33;18.30;36.10
6986;DHT22;3533;51.246;6.850;2023-03-05T08:41:59;18.30;36.10
6986;DHT22;3533;51.246;6.850;2023-03-05T08:44:24;18.30;36.10
6986;DHT22;3533;51.246;6.850;2023-03-05T08:46:50;18.30;36.10
6986;DHT22;3533;51.246;6.850;2023-03-05T08:49:16;18.30;36.10
6986;DHT22;3533;51.246;6.850;2023-03-05T08:51:41;18.30;36.20
6986;DHT22;3533;51.246;6.850;2023-03-05T08:54:07;18.30;36.10
6986;DHT22;3533;51.246;6.850;2023-03-05T08:56:34;18.30;36.10
6986;DHT22;3533;51.246;6.850;2023-03-05T08:59:00;18.30;36.10
6986;DHT22;3533;51.246;6.850;2023-03-05T09:01:26;18.30;36.10
6986;DHT22;3533;51.246;6.850;2023-03-05T09:03:52;18.30;36.10
6986;DHT22;3533;51.246;6.850;2023-03-05T09:06:18;18.30;36.20
6986;DHT22;3533;51.246;6.850;2023-03-05T09:08:43;18.30;36.10
6986;DHT22;3533;51.246;6.850;2023-03-05T09:11:11;18.30;36.10
6986;DHT22;3533;51.246;6.850;2023-03-05T09:13:37;18.30;36.10
6986;DHT22;3533;51.246;6.850;2023-03-05T09:16:10;18.30;36.80
6986;DHT22;3533;51.246;6.850;2023-03-05T09:18:36;18.30;36.10
6986;DHT22;3533;51.246;6.850;2023-03-05T09:21:06;18.30;36.10
6986;DHT22;3533;51.246;6.850;2023-03-05T09:23:32;18.30;36.10
6986;DHT22;3533;51.246;6.850;2023-03-05T09:25:58;18.30;36.10
6986;DHT22;3533;51.246;6.850;2023-03-05T09:28:23;18.30;36.10
6986;DHT22;3533;51.246;6.850;2023-03-05T09:30:49;18.30;36.00
6986;DHT22;3533;51.246;6.850;2023-03-05T09:33:14;18.30;36.00
6986;DHT22;3533;51.246;6.850;2023-03-05T09:35:40;18.30;36.00
6986;DHT22;3533;51.246;6.850;2023-03-05T09:38:06;18.30;36.10
6986;DHT22;3533;51.246;6.850;2023-03-05T09:41:11;18.30;36.10
6986;DHT22;3533;51.246;6.850;2023-03-05T09:44:03;18.40;36.10
6986;DHT22;3533;51.246;6.850;2023-03-05T09:51:41;18.40;36.10
6986;DHT22;3533;51.246;6.850;2023-03-05T09:54:24;18.40;36.10
6986;DHT22;3533;51.246;6.850;2023-03-05T09:56:57;18.40;36.20
6986;DHT22;3533;51.246;6.850;2023-03-05T10:02:02;18.40;36.20
6986;DHT22;3533;51.246;6.850;2023-03-05T10:04:49;18.40;36.20
6986;DHT22;3533;51.246;6.850;2023-03-05T10:07:33;18.40;36.10
6986;DHT22;3533;51.246;6.850;2023-03-05T10:10:09;18.40;36.20
6986;DHT22;3533;51.246;6.850;2023-03-05T10:12:40;18.40;36.20
6986;DHT22;3533;51.246;6.850;2023-03-05T10:18:17;18.50;36.30
6986;DHT22;3533;51.246;6.850;2023-03-05T10:29:18;18.40;36.50
6986;DHT22;3533;51.246;6.850;2023-03-05T10:31:52;18.50;36.60
6986;DHT22;3533;51.246;6.850;2023-03-05T10:37:47;18.50;36.60
6986;DHT22;3533;51.246;6.850;2023-03-05T10:43:19;18.50;36.70
6986;DHT22;3533;51.246;6.850;2023-03-05T10:45:51;18.50;36.60
6986;DHT22;3533;51.246;6.850;2023-03-05T10:48:36;18.50;36.70
6986;DHT22;3533;51.246;6.850;2023-03-05T10:51:14;18.50;36.70
6986;DHT22;3533;51.246;6.850;2023-03-05T10:56:23;18.50;36.70
6986;DHT22;3533;51.246;6.850;2023-03-05T10:58:49;18.50;36.80
6986;DHT22;3533;51.246;6.850;2023-03-05T11:03:52;18.50;36.80
6986;DHT22;3533;51.246;6.850;2023-03-05T11:06:34;18.50;36.80
6986;DHT22;3533;51.246;6.850;2023-03-05T11:09:26;18.50;36.80
6986;DHT22;3533;51.246;6.850;2023-03-05T11:14:31;18.50;36.90
6986;DHT22;3533;51.246;6.850;2023-03-05T11:17:00;18.50;36.80
6986;DHT22;3533;51.246;6.850;2023-03-05T11:19:32;18.50;36.90
6986;DHT22;3533;51.246;6.850;2023-03-05T11:22:15;18.50;36.80
6986;DHT22;3533;51.246;6.850;2023-03-05T11:24:42;18.50;36.80
6986;DHT22;3533;51.246;6.850;2023-03-05T11:27:22;18.50;36.90
6986;DHT22;3533;51.246;6.850;2023-03-05T11:29:48;18.50;36.80
6986;DHT22;3533;51.246;6.850;2023-03-05T11:32:25;18.50;36.80
6986;DHT22;3533;51.246;6.850;2023-03-05T11:34:53;18.50;36.80
6986;DHT22;3533;51.246;6.850;2023-03-05T11:37:26;18.50;36.70
6986;DHT22;3533;51.246;6.850;2023-03-05T11:40:15;18.50;36.80
6986;DHT22;3533;51.246;6.850;2023-03-05T11:42:43;18.50;36.80
6986;DHT22;3533;51.246;6.850;2023-03-05T11:45:16;18.50;36.80
6986;DHT22;3533;51.246;6.850;2023-03-05T11:47:48;18.50;36.70
6986;DHT22;3533;51.246;6.850;2023-03-05T11:53:01;18.50;36.80
6986;DHT22;3533;51.246;6.850;2023-03-05T12:00:49;18.50;36.70
6986;DHT22;3533;51.246;6.850;2023-03-05T12:03:23;18.40;36.70
6986;DHT22;3533;51.246;6.850;2023-03-05T12:06:37;18.40;36.70
6986;DHT22;3533;51.246;6.850;2023-03-05T12:08:40;18.40;36.70
6986;DHT22;3533;51.246;6.850;2023-03-05T12:11:18;18.40;36.70
6986;DHT22;3533;51.246;6.850;2023-03-05T12:13:49;18.40;36.70
6986;DHT22;3533;51.246;6.850;2023-03-05T12:16:29;18.40;36.70
6986;DHT22;3533;51.246;6.850;2023-03-05T12:24:00;18.40;36.70
6986;DHT22;3533;51.246;6.850;2023-03-05T12:35:20;18.40;36.70
6986;DHT22;3533;51.246;6.850;2023-03-05T12:40:31;18.40;36.70
6986;DHT22;3533;51.246;6.850;2023-03-05T12:43:01;18.40;36.60
6986;DHT22;3533;51.246;6.850;2023-03-05T12:45:36;18.40;36.70
6986;DHT22;3533;51.246;6.850;2023-03-05T12:58:12;18.50;36.70
6986;DHT22;3533;51.246;6.850;2023-03-05T13:03:18;18.50;37.50
6986;DHT22;3533;51.246;6.850;2023-03-05T13:05:52;18.50;36.80
6986;DHT22;3533;51.246;6.850;2023-03-05T13:08:22;18.50;36.80
6986;DHT22;3533;51.246;6.850;2023-03-05T13:10:54;18.50;36.90
6986;DHT22;3533;51.246;6.850;2023-03-05T13:13:22;18.50;37.00
6986;DHT22;3533;51.246;6.850;2023-03-05T13:15:51;18.50;37.00
6986;DHT22;3533;51.246;6.850;2023-03-05T13:18:28;18.50;37.00
6986;DHT22;3533;51.246;6.850;2023-03-05T13:21:12;18.50;37.00
6986;DHT22;3533;51.246;6.850;2023-03-05T13:23:48;18.50;37.00
6986;DHT22;3533;51.246;6.850;2023-03-05T13:26:18;18.50;37.00
6986;DHT22;3533;51.246;6.850;2023-03-05T13:31:57;18.50;37.10
6986;DHT22;3533;51.246;6.850;2023-03-05T13:34:34;18.50;37.10
6986;DHT22;3533;51.246;6.850;2023-03-05T13:37:05;18.50;37.10
6986;DHT22;3533;51.246;6.850;2023-03-05T13:39:34;18.50;37.20
6986;DHT22;3533;51.246;6.850;2023-03-05T13:42:06;18.50;37.20
6986;DHT22;3533;51.246;6.850;2023-03-05T13:44:38;18.50;37.20
6986;DHT22;3533;51.246;6.850;2023-03-05T13:47:22;18.50;37.20
6986;DHT22;3533;51.246;6.850;2023-03-05T13:49:57;18.50;37.10
6986;DHT22;3533;51.246;6.850;2023-03-05T13:52:36;18.50;37.20
6986;DHT22;3533;51.246;6.850;2023-03-05T13:55:09;18.50;37.20
6986;DHT22;3533;51.246;6.850;2023-03-05T14:00:07;18.60;37.30
6986;DHT22;3533;51.246;6.850;2023-03-05T14:02:49;18.50;37.30
6986;DHT22;3533;51.246;6.850;2023-03-05T14:05:14;18.50;37.30
6986;DHT22;3533;51.246;6.850;2023-03-05T14:07:41;18.50;37.30
6986;DHT22;3533;51.246;6.850;2023-03-05T14:10:30;18.50;37.30
6986;DHT22;3533;51.246;6.850;2023-03-05T14:12:58;18.50;37.20
6986;DHT22;3533;51.246;6.850;2023-03-05T14:15:30;18.60;37.20
6986;DHT22;3533;51.246;6.850;2023-03-05T14:20:56;18.60;37.10
6986;DHT22;3533;51.246;6.850;2023-03-05T14:26:37;18.70;36.60
6986;DHT22;3533;51.246;6.850;2023-03-05T14:31:58;18.70;36.20
6986;DHT22;3533;51.246;6.850;2023-03-05T14:34:38;18.70;36.10
6986;DHT22;3533;51.246;6.850;2023-03-05T14:45:24;18.80;35.60
6986;DHT22;3533;51.246;6.850;2023-03-05T14:47:52;18.80;35.60
6986;DHT22;3533;51.246;6.850;2023-03-05T14:50:27;18.80;35.70
6986;DHT22;3533;51.246;6.850;2023-03-05T14:53:24;18.80;35.80
6986;DHT22;3533;51.246;6.850;2023-03-05T14:55:50;18.80;36.10
6986;DHT22;3533;51.246;6.850;2023-03-05T14:58:22;18.90;36.40
6986;DHT22;3533;51.246;6.850;2023-03-05T15:00:51;18.90;36.60
6986;DHT22;3533;51.246;6.850;2023-03-05T15:03:18;18.90;36.80
6986;DHT22;3533;51.246;6.850;2023-03-05T15:05:46;18.90;36.90
6986;DHT22;3533;51.246;6.850;2023-03-05T15:08:21;18.90;37.10
6986;DHT22;3533;51.246;6.850;2023-03-05T15:10:48;18.90;37.20
6986;DHT22;3533;51.246;6.850;2023-03-05T15:13:14;19.00;37.50
6986;DHT22;3533;51.246;6.850;2023-03-05T15:15:41;19.00;37.60
6986;DHT22;3533;51.246;6.850;2023-03-05T15:18:11;19.00;37.60
6986;DHT22;3533;51.246;6.850;2023-03-05T15:20:37;19.00;37.60
6986;DHT22;3533;51.246;6.850;2023-03-05T15:23:04;19.00;37.50
6986;DHT22;3533;51.246;6.850;2023-03-05T15:25:29;19.00;37.30
6986;DHT22;3533;51.246;6.850;2023-03-05T15:27:55;19.00;37.10
6986;DHT22;3533;51.246;6.850;2023-03-05T15:30:25;19.00;37.10
6986;DHT22;3533;51.246;6.850;2023-03-05T15:32:55;19.00;36.90
6986;DHT22;3533;51.246;6.850;2023-03-05T15:35:23;19.00;36.90
6986;DHT22;3533;51.246;6.850;2023-03-05T15:37:48;19.00;36.90
6986;DHT22;3533;51.246;6.850;2023-03-05T15:40:14;19.00;36.90
6986;DHT22;3533;51.246;6.850;2023-03-05T15:42:40;19.10;37.20
6986;DHT22;3533;51.246;6.850;2023-03-05T15:45:06;19.10;37.20
6986;DHT22;3533;51.246;6.850;2023-03-05T15:47:32;19.10;37.20
6986;DHT22;3533;51.246;6.850;2023-03-05T15:49:57;19.10;37.20
6986;DHT22;3533;51.246;6.850;2023-03-05T15:52:23;19.10;37.30
6986;DHT22;3533;51.246;6.850;2023-03-05T15:54:48;19.10;37.30
6986;DHT22;3533;51.246;6.850;2023-03-05T15:57:14;19.10;37.80
6986;DHT22;3533;51.246;6.850;2023-03-05T15:59:40;19.20;37.50
6986;DHT22;3533;51.246;6.850;2023-03-05T16:02:06;19.20;37.70
6986;DHT22;3533;51.246;6.850;2023-03-05T16:04:32;19.20;37.70
6986;DHT22;3533;51.246;6.850;2023-03-05T16:06:59;19.20;37.80
6986;DHT22;3533;51.246;6.850;2023-03-05T16:09:30;19.20;37.90
6986;DHT22;3533;51.246;6.850;2023-03-05T16:11:56;19.20;38.00
6986;DHT22;3533;51.246;6.850;2023-03-05T16:14:24;19.20;38.00
6986;DHT22;3533;51.246;6.850;2023-03-05T16:16:52;19.20;38.00
6986;DHT22;3533;51.246;6.850;2023-03-05T16:19:19;19.20;38.20
6986;DHT22;3533;51.246;6.850;2023-03-05T16:21:45;19.20;38.20
6986;DHT22;3533;51.246;6.850;2023-03-05T16:24:11;19.20;38.20
6986;DHT22;3533;51.246;6.850;2023-03-05T16:26:38;19.20;38.30
6986;DHT22;3533;51.246;6.850;2023-03-05T16:29:04;19.20;38.20
6986;DHT22;3533;51.246;6.850;2023-03-05T16:31:31;19.20;38.20
6986;DHT22;3533;51.246;6.850;2023-03-05T16:33:58;19.20;38.10
6986;DHT22;3533;51.246;6.850;2023-03-05T16:36:26;19.20;38.00
6986;DHT22;3533;51.246;6.850;2023-03-05T16:38:54;19.20;38.10
6986;DHT22;3533;51.246;6.850;2023-03-05T16:41:20;19.20;38.00
6986;DHT22;3533;51.246;6.850;2023-03-05T16:43:46;19.20;38.00
6986;DHT22;3533;51.246;6.850;2023-03-05T16:46:13;19.20;38.00
6986;DHT22;3533;51.246;6.850;2023-03-05T16:48:40;19.20;37.90
6986;DHT22;3533;51.246;6.850;2023-03-05T16:51:07;19.20;37.80
6986;DHT22;3533;51.246;6.850;2023-03-05T16:53:33;19.20;37.80
6986;DHT22;3533;51.246;6.850;2023-03-05T16:56:01;19.20;37.70
6986;DHT22;3533;51.246;6.850;2023-03-05T16:58:28;19.20;37.70
6986;DHT22;3533;51.246;6.850;2023-03-05T17:00:54;19.10;37.60
6986;DHT22;3533;51.246;6.850;2023-03-05T17:03:20;19.10;37.60
6986;DHT22;3533;51.246;6.850;2023-03-05T17:05:46;19.10;37.50
6986;DHT22;3533;51.246;6.850;2023-03-05T17:08:11;19.10;37.50
6986;DHT22;3533;51.246;6.850;2023-03-05T17:10:37;19.10;37.40
6986;DHT22;3533;51.246;6.850;2023-03-05T17:13:02;19.10;37.40
6986;DHT22;3533;51.246;6.850;2023-03-05T17:15:28;19.00;37.30
6986;DHT22;3533;51.246;6.850;2023-03-05T17:17:54;19.00;37.30
6986;DHT22;3533;51.246;6.850;2023-03-05T17:20:19;19.00;37.30
6986;DHT22;3533;51.246;6.850;2023-03-05T17:22:45;19.00;37.30
6986;DHT22;3533;51.246;6.850;2023-03-05T17:25:12;19.00;37.30
6986;DHT22;3533;51.246;6.850;2023-03-05T17:27:37;19.00;37.20
6986;DHT22;3533;51.246;6.850;2023-03-05T17:30:04;19.00;37.20
6986;DHT22;3533;51.246;6.850;2023-03-05T17:32:29;19.00;37.20
6986;DHT22;3533;51.246;6.850;2023-03-05T17:34:55;19.00;37.20
6986;DHT22;3533;51.246;6.850;2023-03-05T17:37:21;18.90;37.00
6986;DHT22;3533;51.246;6.850;2023-03-05T17:39:47;18.90;37.10
6986;DHT22;3533;51.246;6.850;2023-03-05T17:42:13;18.90;37.00
6986;DHT22;3533;51.246;6.850;2023-03-05T17:44:40;18.90;37.00